sensor_id;sensor_type;location;lat;lon;timestamp;P1;durP1;ratioP1;P2;durP2;ratioP2
48919;SDS011;34730;50.894;6.052;2022-09-09T00:00:05;2.40;;;1.45;;
48919;SDS011;34730;50.894;6.052;2022-09-09T00:00:47;2.10;;;1.05;;
48919;SDS011;34730;50.894;6.052;2022-09-09T00:02:28;3.85;;;1.20;;
48919;SDS011;34730;50.894;6.052;2022-09-09T00:03:02;2.83;;;1.30;;
48919;SDS011;34730;50.894;6.052;2022-09-09T00:03:57;2.80;;;0.95;;
48919;SDS011;34730;50.894;6.052;2022-09-09T00:04:47;2.33;;;1.00;;
48919;SDS011;34730;50.894;6.052;2022-09-09T00:06:31;3.08;;;1.08;;
48919;SDS011;34730;50.894;6.052;2022-09-09T00:07:21;1.58;;;0.90;;
48919;SDS011;34730;50.894;6.052;2022-09-09T00:08:17;3.70;;;1.05;;
48919;SDS011;34730;50.894;6.052;2022-09-09T00:10:34;3.53;;;1.08;;
48919;SDS011;34730;50.894;6.052;2022-09-09T00:11:12;2.92;;;1.10;;
48919;SDS011;34730;50.894;6.052;2022-09-09T00:13:29;2.58;;;0.93;;
48919;SDS011;34730;50.894;6.052;2022-09-09T00:16:47;2.03;;;1.00;;
48919;SDS011;34730;50.894;6.052;2022-09-09T00:17:30;4.07;;;1.08;;
48919;SDS011;34730;50.894;6.052;2022-09-09T00:19:41;4.15;;;1.02;;
48919;SDS011;34730;50.894;6.052;2022-09-09T00:21:17;2.78;;;0.85;;
48919;SDS011;34730;50.894;6.052;2022-09-09T00:21:52;3.45;;;1.15;;
48919;SDS011;34730;50.894;6.052;2022-09-09T00:22:36;5.30;;;1.10;;
48919;SDS011;34730;50.894;6.052;2022-09-09T00:23:54;3.25;;;0.95;;
48919;SDS011;34730;50.894;6.052;2022-09-09T00:25:02;2.72;;;0.90;;
48919;SDS011;34730;50.894;6.052;2022-09-09T00:25:44;2.72;;;1.00;;
48919;SDS011;34730;50.894;6.052;2022-09-09T00:26:39;3.88;;;0.80;;
48919;SDS011;34730;50.894;6.052;2022-09-09T00:27:25;2.38;;;0.73;;
48919;SDS011;34730;50.894;6.052;2022-09-09T00:28:18;1.85;;;0.80;;
48919;SDS011;34730;50.894;6.052;2022-09-09T00:29:38;2.58;;;0.90;;
48919;SDS011;34730;50.894;6.052;2022-09-09T00:30:17;3.25;;;1.00;;
48919;SDS011;34730;50.894;6.052;2022-09-09T00:30:53;3.42;;;0.85;;
48919;SDS011;34730;50.894;6.052;2022-09-09T00:31:28;2.78;;;0.90;;
48919;SDS011;34730;50.894;6.052;2022-09-09T00:32:00;2.45;;;1.00;;
48919;SDS011;34730;50.894;6.052;2022-09-09T00:32:42;3.13;;;1.08;;
48919;SDS011;34730;50.894;6.052;2022-09-09T00:33:15;3.67;;;0.95;;
48919;SDS011;34730;50.894;6.052;2022-09-09T00:33:53;4.70;;;1.30;;
48919;SDS011;34730;50.894;6.052;2022-09-09T00:34:28;2.63;;;0.90;;
48919;SDS011;34730;50.894;6.052;2022-09-09T00:36:09;3.53;;;1.00;;
48919;SDS011;34730;50.894;6.052;2022-09-09T00:36:45;2.92;;;0.95;;
48919;SDS011;34730;50.894;6.052;2022-09-09T00:37:21;1.83;;;1.00;;
48919;SDS011;34730;50.894;6.052;2022-09-09T00:37:56;2.05;;;0.80;;
48919;SDS011;34730;50.894;6.052;2022-09-09T00:39:02;3.42;;;1.20;;
48919;SDS011;34730;50.894;6.052;2022-09-09T00:39:37;1.75;;;1.00;;
48919;SDS011;34730;50.894;6.052;2022-09-09T00:41:22;3.40;;;1.30;;
48919;SDS011;34730;50.894;6.052;2022-09-09T00:42:42;2.67;;;1.10;;
48919;SDS011;34730;50.894;6.052;2022-09-09T00:43:21;2.85;;;1.00;;
48919;SDS011;34730;50.894;6.052;2022-09-09T00:47:49;3.70;;;1.13;;
48919;SDS011;34730;50.894;6.052;2022-09-09T00:50:38;2.95;;;1.00;;
48919;SDS011;34730;50.894;6.052;2022-09-09T00:51:15;3.72;;;0.98;;
48919;SDS011;34730;50.894;6.052;2022-09-09T00:52:39;3.63;;;1.48;;
48919;SDS011;34730;50.894;6.052;2022-09-09T00:55:09;1.77;;;1.02;;
48919;SDS011;34730;50.894;6.052;2022-09-09T00:56:19;3.00;;;1.20;;
48919;SDS011;34730;50.894;6.052;2022-09-09T00:57:53;3.13;;;1.20;;
48919;SDS011;34730;50.894;6.052;2022-09-09T00:58:26;4.50;;;1.30;;
48919;SDS011;34730;50.894;6.052;2022-09-09T00:59:04;3.35;;;1.23;;
48919;SDS011;34730;50.894;6.052;2022-09-09T00:59:51;4.28;;;1.20;;
48919;SDS011;34730;50.894;6.052;2022-09-09T01:00:30;3.45;;;1.50;;
48919;SDS011;34730;50.894;6.052;2022-09-09T01:01:17;3.63;;;1.30;;
48919;SDS011;34730;50.894;6.052;2022-09-09T01:01:48;4.72;;;1.45;;
48919;SDS011;34730;50.894;6.052;2022-09-09T01:04:25;2.25;;;1.30;;
48919;SDS011;34730;50.894;6.052;2022-09-09T01:05:07;3.47;;;1.40;;
48919;SDS011;34730;50.894;6.052;2022-09-09T01:05:51;4.35;;;1.60;;
48919;SDS011;34730;50.894;6.052;2022-09-09T01:06:35;4.57;;;1.38;;
48919;SDS011;34730;50.894;6.052;2022-09-09T01:07:12;3.97;;;1.30;;
48919;SDS011;34730;50.894;6.052;2022-09-09T01:07:47;4.53;;;1.50;;
48919;SDS011;34730;50.894;6.052;2022-09-09T01:09:22;4.90;;;1.65;;
48919;SDS011;34730;50.894;6.052;2022-09-09T01:10:00;8.07;;;1.70;;
48919;SDS011;34730;50.894;6.052;2022-09-09T01:10:49;5.22;;;1.50;;
48919;SDS011;34730;50.894;6.052;2022-09-09T01:11:26;4.68;;;1.67;;
48919;SDS011;34730;50.894;6.052;2022-09-09T01:13:01;3.60;;;1.60;;
48919;SDS011;34730;50.894;6.052;2022-09-09T01:13:38;4.28;;;1.40;;
48919;SDS011;34730;50.894;6.052;2022-09-09T01:14:19;5.70;;;1.80;;
48919;SDS011;34730;50.894;6.052;2022-09-09T01:15:03;5.53;;;1.77;;
48919;SDS011;34730;50.894;6.052;2022-09-09T01:16:40;5.00;;;1.70;;
48919;SDS011;34730;50.894;6.052;2022-09-09T01:17:17;5.25;;;1.70;;
48919;SDS011;34730;50.894;6.052;2022-09-09T01:18:13;4.72;;;1.67;;
48919;SDS011;34730;50.894;6.052;2022-09-09T01:18:49;3.85;;;1.48;;
48919;SDS011;34730;50.894;6.052;2022-09-09T01:21:39;4.90;;;1.50;;
48919;SDS011;34730;50.894;6.052;2022-09-09T01:22:44;5.80;;;1.48;;
48919;SDS011;34730;50.894;6.052;2022-09-09T01:24:32;4.47;;;1.67;;
48919;SDS011;34730;50.894;6.052;2022-09-09T01:26:30;4.30;;;1.67;;
48919;SDS011;34730;50.894;6.052;2022-09-09T01:27:11;4.32;;;1.27;;
48919;SDS011;34730;50.894;6.052;2022-09-09T01:27:46;5.28;;;1.40;;
48919;SDS011;34730;50.894;6.052;2022-09-09T01:28:22;5.53;;;1.70;;
48919;SDS011;34730;50.894;6.052;2022-09-09T01:29:01;5.57;;;1.65;;
48919;SDS011;34730;50.894;6.052;2022-09-09T01:29:40;4.47;;;1.50;;
48919;SDS011;34730;50.894;6.052;2022-09-09T01:30:14;4.60;;;1.52;;
48919;SDS011;34730;50.894;6.052;2022-09-09T01:30:47;7.47;;;1.52;;
48919;SDS011;34730;50.894;6.052;2022-09-09T01:31:23;5.38;;;1.50;;
48919;SDS011;34730;50.894;6.052;2022-09-09T01:33:15;3.67;;;1.38;;
48919;SDS011;34730;50.894;6.052;2022-09-09T01:33:47;5.53;;;1.27;;
48919;SDS011;34730;50.894;6.052;2022-09-09T01:34:19;2.97;;;1.35;;
48919;SDS011;34730;50.894;6.052;2022-09-09T01:34:54;4.75;;;1.70;;
48919;SDS011;34730;50.894;6.052;2022-09-09T01:36:51;5.80;;;1.40;;
48919;SDS011;34730;50.894;6.052;2022-09-09T01:37:28;5.10;;;1.60;;
48919;SDS011;34730;50.894;6.052;2022-09-09T01:37:59;8.43;;;1.60;;
48919;SDS011;34730;50.894;6.052;2022-09-09T01:38:30;4.88;;;1.73;;
48919;SDS011;34730;50.894;6.052;2022-09-09T01:39:05;7.32;;;1.83;;
48919;SDS011;34730;50.894;6.052;2022-09-09T01:39:38;8.32;;;1.63;;
48919;SDS011;34730;50.894;6.052;2022-09-09T01:40:14;5.65;;;1.67;;
48919;SDS011;34730;50.894;6.052;2022-09-09T01:40:45;5.45;;;1.50;;
48919;SDS011;34730;50.894;6.052;2022-09-09T01:41:16;3.55;;;1.38;;
48919;SDS011;34730;50.894;6.052;2022-09-09T01:41:53;5.38;;;1.65;;
48919;SDS011;34730;50.894;6.052;2022-09-09T01:42:26;4.18;;;1.30;;
48919;SDS011;34730;50.894;6.052;2022-09-09T01:42:59;6.93;;;1.90;;
48919;SDS011;34730;50.894;6.052;2022-09-09T01:43:30;7.03;;;1.80;;
48919;SDS011;34730;50.894;6.052;2022-09-09T01:44:01;5.80;;;1.70;;
48919;SDS011;34730;50.894;6.052;2022-09-09T01:44:36;7.03;;;2.00;;
48919;SDS011;34730;50.894;6.052;2022-09-09T01:45:09;4.90;;;1.50;;
48919;SDS011;34730;50.894;6.052;2022-09-09T01:45:40;5.07;;;1.92;;
48919;SDS011;34730;50.894;6.052;2022-09-09T01:46:14;5.55;;;1.70;;
48919;SDS011;34730;50.894;6.052;2022-09-09T01:46:46;5.00;;;1.70;;
48919;SDS011;34730;50.894;6.052;2022-09-09T01:47:22;4.82;;;1.60;;
48919;SDS011;34730;50.894;6.052;2022-09-09T01:48:19;5.72;;;1.70;;
48919;SDS011;34730;50.894;6.052;2022-09-09T01:49:04;5.47;;;1.67;;
48919;SDS011;34730;50.894;6.052;2022-09-09T01:49:37;6.45;;;1.88;;
48919;SDS011;34730;50.894;6.052;2022-09-09T01:50:15;5.38;;;1.70;;
48919;SDS011;34730;50.894;6.052;2022-09-09T01:50:47;8.65;;;1.92;;
48919;SDS011;34730;50.894;6.052;2022-09-09T01:51:20;7.03;;;2.00;;
48919;SDS011;34730;50.894;6.052;2022-09-09T01:51:53;5.32;;;1.58;;
48919;SDS011;34730;50.894;6.052;2022-09-09T01:52:32;6.30;;;1.85;;
48919;SDS011;34730;50.894;6.052;2022-09-09T01:53:04;6.85;;;1.73;;
48919;SDS011;34730;50.894;6.052;2022-09-09T01:53:39;6.10;;;1.75;;
48919;SDS011;34730;50.894;6.052;2022-09-09T01:54:14;4.45;;;1.55;;
48919;SDS011;34730;50.894;6.052;2022-09-09T01:54:45;7.65;;;1.85;;
48919;SDS011;34730;50.894;6.052;2022-09-09T01:55:41;4.53;;;1.40;;
48919;SDS011;34730;50.894;6.052;2022-09-09T01:56:20;4.63;;;1.70;;
48919;SDS011;34730;50.894;6.052;2022-09-09T01:57:40;5.38;;;1.60;;
48919;SDS011;34730;50.894;6.052;2022-09-09T02:00:08;6.60;;;1.90;;
48919;SDS011;34730;50.894;6.052;2022-09-09T02:00:57;6.85;;;1.92;;
48919;SDS011;34730;50.894;6.052;2022-09-09T02:03:17;6.05;;;1.60;;
48919;SDS011;34730;50.894;6.052;2022-09-09T02:04:07;7.32;;;2.20;;
48919;SDS011;34730;50.894;6.052;2022-09-09T02:05:02;5.05;;;1.52;;
48919;SDS011;34730;50.894;6.052;2022-09-09T02:06:24;6.97;;;1.60;;
48919;SDS011;34730;50.894;6.052;2022-09-09T02:07:03;6.00;;;1.70;;
48919;SDS011;34730;50.894;6.052;2022-09-09T02:07:47;4.65;;;1.80;;
48919;SDS011;34730;50.894;6.052;2022-09-09T02:09:07;7.13;;;1.65;;
48919;SDS011;34730;50.894;6.052;2022-09-09T02:09:46;5.82;;;1.70;;
48919;SDS011;34730;50.894;6.052;2022-09-09T02:10:25;4.18;;;1.60;;
48919;SDS011;34730;50.894;6.052;2022-09-09T02:11:19;10.50;;;2.40;;
48919;SDS011;34730;50.894;6.052;2022-09-09T02:12:00;6.63;;;1.60;;
48919;SDS011;34730;50.894;6.052;2022-09-09T02:12:45;6.78;;;1.65;;
48919;SDS011;34730;50.894;6.052;2022-09-09T02:13:23;5.38;;;1.95;;
48919;SDS011;34730;50.894;6.052;2022-09-09T02:14:12;4.05;;;1.40;;
48919;SDS011;34730;50.894;6.052;2022-09-09T02:14:52;5.15;;;1.42;;
48919;SDS011;34730;50.894;6.052;2022-09-09T02:15:30;6.35;;;1.77;;
48919;SDS011;34730;50.894;6.052;2022-09-09T02:16:11;6.05;;;1.80;;
48919;SDS011;34730;50.894;6.052;2022-09-09T02:16:52;7.45;;;1.73;;
48919;SDS011;34730;50.894;6.052;2022-09-09T02:17:36;4.65;;;1.60;;
48919;SDS011;34730;50.894;6.052;2022-09-09T02:18:17;8.60;;;2.17;;
48919;SDS011;34730;50.894;6.052;2022-09-09T02:18:55;8.80;;;1.77;;
48919;SDS011;34730;50.894;6.052;2022-09-09T02:19:52;6.78;;;1.92;;
48919;SDS011;34730;50.894;6.052;2022-09-09T02:20:41;7.53;;;1.60;;
48919;SDS011;34730;50.894;6.052;2022-09-09T02:21:15;5.05;;;1.60;;
48919;SDS011;34730;50.894;6.052;2022-09-09T02:21:47;7.82;;;2.05;;
48919;SDS011;34730;50.894;6.052;2022-09-09T02:22:19;6.53;;;1.80;;
48919;SDS011;34730;50.894;6.052;2022-09-09T02:22:53;4.90;;;1.55;;
48919;SDS011;34730;50.894;6.052;2022-09-09T02:23:27;5.75;;;1.85;;
48919;SDS011;34730;50.894;6.052;2022-09-09T02:24:00;6.78;;;1.77;;
48919;SDS011;34730;50.894;6.052;2022-09-09T02:24:39;5.15;;;1.70;;
48919;SDS011;34730;50.894;6.052;2022-09-09T02:25:25;4.88;;;1.50;;
48919;SDS011;34730;50.894;6.052;2022-09-09T02:26:03;5.80;;;1.80;;
48919;SDS011;34730;50.894;6.052;2022-09-09T02:26:35;5.38;;;1.73;;
48919;SDS011;34730;50.894;6.052;2022-09-09T02:27:12;5.97;;;1.55;;
48919;SDS011;34730;50.894;6.052;2022-09-09T02:27:48;6.15;;;1.90;;
48919;SDS011;34730;50.894;6.052;2022-09-09T02:28:21;7.10;;;1.85;;
48919;SDS011;34730;50.894;6.052;2022-09-09T02:28:56;7.53;;;1.98;;
48919;SDS011;34730;50.894;6.052;2022-09-09T02:29:33;5.57;;;1.75;;
48919;SDS011;34730;50.894;6.052;2022-09-09T02:30:09;5.88;;;1.90;;
48919;SDS011;34730;50.894;6.052;2022-09-09T02:30:45;4.85;;;1.45;;
48919;SDS011;34730;50.894;6.052;2022-09-09T02:31:22;8.27;;;1.80;;
48919;SDS011;34730;50.894;6.052;2022-09-09T02:31:59;8.07;;;1.80;;
48919;SDS011;34730;50.894;6.052;2022-09-09T02:32:37;6.63;;;1.80;;
48919;SDS011;34730;50.894;6.052;2022-09-09T02:33:13;5.28;;;1.73;;
48919;SDS011;34730;50.894;6.052;2022-09-09T02:33:57;6.43;;;1.90;;
48919;SDS011;34730;50.894;6.052;2022-09-09T02:34:31;7.72;;;1.60;;
48919;SDS011;34730;50.894;6.052;2022-09-09T02:35:09;5.75;;;1.70;;
48919;SDS011;34730;50.894;6.052;2022-09-09T02:35:45;4.55;;;1.55;;
48919;SDS011;34730;50.894;6.052;2022-09-09T02:36:21;7.85;;;1.92;;
48919;SDS011;34730;50.894;6.052;2022-09-09T02:36:59;7.70;;;1.92;;
48919;SDS011;34730;50.894;6.052;2022-09-09T02:37:33;6.13;;;2.00;;
48919;SDS011;34730;50.894;6.052;2022-09-09T02:38:08;6.13;;;1.70;;
48919;SDS011;34730;50.894;6.052;2022-09-09T02:38:52;6.70;;;1.92;;
48919;SDS011;34730;50.894;6.052;2022-09-09T02:39:30;7.07;;;1.50;;
48919;SDS011;34730;50.894;6.052;2022-09-09T02:40:02;7.25;;;1.98;;
48919;SDS011;34730;50.894;6.052;2022-09-09T02:40:37;9.82;;;1.90;;
48919;SDS011;34730;50.894;6.052;2022-09-09T02:41:10;6.85;;;1.70;;
48919;SDS011;34730;50.894;6.052;2022-09-09T02:41:42;5.25;;;1.63;;
48919;SDS011;34730;50.894;6.052;2022-09-09T02:42:16;6.13;;;1.70;;
48919;SDS011;34730;50.894;6.052;2022-09-09T02:42:49;8.20;;;1.90;;
48919;SDS011;34730;50.894;6.052;2022-09-09T02:43:22;7.82;;;1.98;;
48919;SDS011;34730;50.894;6.052;2022-09-09T02:43:54;4.60;;;1.70;;
48919;SDS011;34730;50.894;6.052;2022-09-09T02:44:25;7.53;;;2.25;;
48919;SDS011;34730;50.894;6.052;2022-09-09T02:44:56;5.20;;;1.70;;
48919;SDS011;34730;50.894;6.052;2022-09-09T02:45:34;6.68;;;1.70;;
48919;SDS011;34730;50.894;6.052;2022-09-09T02:46:19;7.35;;;2.05;;
48919;SDS011;34730;50.894;6.052;2022-09-09T02:48:16;8.63;;;2.40;;
48919;SDS011;34730;50.894;6.052;2022-09-09T02:49:06;5.80;;;1.80;;
48919;SDS011;34730;50.894;6.052;2022-09-09T02:50:34;6.28;;;1.58;;
48919;SDS011;34730;50.894;6.052;2022-09-09T02:51:53;4.68;;;1.50;;
48919;SDS011;34730;50.894;6.052;2022-09-09T02:53:14;5.40;;;1.77;;
48919;SDS011;34730;50.894;6.052;2022-09-09T02:53:43;7.78;;;2.00;;
48919;SDS011;34730;50.894;6.052;2022-09-09T02:54:39;4.82;;;1.40;;
48919;SDS011;34730;50.894;6.052;2022-09-09T02:55:17;6.80;;;1.70;;
48919;SDS011;34730;50.894;6.052;2022-09-09T02:56:13;6.43;;;1.92;;
48919;SDS011;34730;50.894;6.052;2022-09-09T02:56:52;5.05;;;1.63;;
48919;SDS011;34730;50.894;6.052;2022-09-09T02:57:30;7.25;;;2.30;;
48919;SDS011;34730;50.894;6.052;2022-09-09T02:58:04;6.43;;;1.98;;
48919;SDS011;34730;50.894;6.052;2022-09-09T02:58:39;6.82;;;1.65;;
48919;SDS011;34730;50.894;6.052;2022-09-09T02:59:10;7.70;;;2.30;;
48919;SDS011;34730;50.894;6.052;2022-09-09T02:59:43;9.02;;;1.98;;
48919;SDS011;34730;50.894;6.052;2022-09-09T03:00:23;10.35;;;1.88;;
48919;SDS011;34730;50.894;6.052;2022-09-09T03:00:55;5.00;;;1.58;;
48919;SDS011;34730;50.894;6.052;2022-09-09T03:01:28;8.32;;;1.85;;
48919;SDS011;34730;50.894;6.052;2022-09-09T03:01:59;7.97;;;1.63;;
48919;SDS011;34730;50.894;6.052;2022-09-09T03:02:32;5.47;;;1.70;;
48919;SDS011;34730;50.894;6.052;2022-09-09T03:03:08;6.78;;;1.88;;
48919;SDS011;34730;50.894;6.052;2022-09-09T03:03:40;6.90;;;1.95;;
48919;SDS011;34730;50.894;6.052;2022-09-09T03:04:15;5.50;;;1.95;;
48919;SDS011;34730;50.894;6.052;2022-09-09T03:04:49;8.77;;;1.90;;
48919;SDS011;34730;50.894;6.052;2022-09-09T03:05:22;7.90;;;1.92;;
48919;SDS011;34730;50.894;6.052;2022-09-09T03:05:54;5.53;;;1.80;;
48919;SDS011;34730;50.894;6.052;2022-09-09T03:06:25;6.15;;;1.67;;
48919;SDS011;34730;50.894;6.052;2022-09-09T03:07:06;6.13;;;1.95;;
48919;SDS011;34730;50.894;6.052;2022-09-09T03:07:36;7.03;;;1.88;;
48919;SDS011;34730;50.894;6.052;2022-09-09T03:08:10;7.45;;;2.13;;
48919;SDS011;34730;50.894;6.052;2022-09-09T03:08:43;5.45;;;2.00;;
48919;SDS011;34730;50.894;6.052;2022-09-09T03:09:15;6.63;;;2.17;;
48919;SDS011;34730;50.894;6.052;2022-09-09T03:09:45;12.50;;;2.67;;
48919;SDS011;34730;50.894;6.052;2022-09-09T03:10:17;6.55;;;2.10;;
48919;SDS011;34730;50.894;6.052;2022-09-09T03:10:47;8.63;;;2.00;;
48919;SDS011;34730;50.894;6.052;2022-09-09T03:11:19;5.97;;;1.95;;
48919;SDS011;34730;50.894;6.052;2022-09-09T03:11:50;7.28;;;2.53;;
48919;SDS011;34730;50.894;6.052;2022-09-09T03:12:21;8.50;;;2.10;;
48919;SDS011;34730;50.894;6.052;2022-09-09T03:12:54;7.05;;;1.83;;
48919;SDS011;34730;50.894;6.052;2022-09-09T03:13:25;5.68;;;1.98;;
48919;SDS011;34730;50.894;6.052;2022-09-09T03:13:56;7.55;;;2.15;;
48919;SDS011;34730;50.894;6.052;2022-09-09T03:14:31;8.45;;;2.10;;
48919;SDS011;34730;50.894;6.052;2022-09-09T03:15:02;4.72;;;1.70;;
48919;SDS011;34730;50.894;6.052;2022-09-09T03:15:33;5.43;;;2.05;;
48919;SDS011;34730;50.894;6.052;2022-09-09T03:16:08;9.15;;;2.10;;
48919;SDS011;34730;50.894;6.052;2022-09-09T03:16:45;7.25;;;2.00;;
48919;SDS011;34730;50.894;6.052;2022-09-09T03:17:16;8.05;;;2.00;;
48919;SDS011;34730;50.894;6.052;2022-09-09T03:17:54;5.35;;;1.80;;
48919;SDS011;34730;50.894;6.052;2022-09-09T03:18:26;6.63;;;1.98;;
48919;SDS011;34730;50.894;6.052;2022-09-09T03:18:58;8.07;;;2.00;;
48919;SDS011;34730;50.894;6.052;2022-09-09T03:19:29;5.90;;;2.00;;
48919;SDS011;34730;50.894;6.052;2022-09-09T03:20:01;6.10;;;1.98;;
48919;SDS011;34730;50.894;6.052;2022-09-09T03:20:35;6.18;;;1.90;;
48919;SDS011;34730;50.894;6.052;2022-09-09T03:21:06;7.35;;;1.85;;
48919;SDS011;34730;50.894;6.052;2022-09-09T03:21:37;6.70;;;1.83;;
48919;SDS011;34730;50.894;6.052;2022-09-09T03:22:09;9.20;;;1.83;;
48919;SDS011;34730;50.894;6.052;2022-09-09T03:22:44;5.85;;;1.88;;
48919;SDS011;34730;50.894;6.052;2022-09-09T03:23:17;9.80;;;1.90;;
48919;SDS011;34730;50.894;6.052;2022-09-09T03:23:51;8.13;;;2.00;;
48919;SDS011;34730;50.894;6.052;2022-09-09T03:24:24;7.68;;;2.15;;
48919;SDS011;34730;50.894;6.052;2022-09-09T03:24:56;9.32;;;2.40;;
48919;SDS011;34730;50.894;6.052;2022-09-09T03:25:27;6.20;;;1.77;;
48919;SDS011;34730;50.894;6.052;2022-09-09T03:25:58;5.80;;;1.98;;
48919;SDS011;34730;50.894;6.052;2022-09-09T03:26:39;7.53;;;1.90;;
48919;SDS011;34730;50.894;6.052;2022-09-09T03:27:15;7.40;;;2.08;;
48919;SDS011;34730;50.894;6.052;2022-09-09T03:27:46;6.15;;;1.70;;
48919;SDS011;34730;50.894;6.052;2022-09-09T03:28:18;7.40;;;1.98;;
48919;SDS011;34730;50.894;6.052;2022-09-09T03:28:51;6.40;;;1.83;;
48919;SDS011;34730;50.894;6.052;2022-09-09T03:29:27;7.38;;;2.00;;
48919;SDS011;34730;50.894;6.052;2022-09-09T03:30:02;6.68;;;2.13;;
48919;SDS011;34730;50.894;6.052;2022-09-09T03:30:36;5.32;;;1.80;;
48919;SDS011;34730;50.894;6.052;2022-09-09T03:31:08;4.55;;;1.80;;
48919;SDS011;34730;50.894;6.052;2022-09-09T03:31:43;7.13;;;2.00;;
48919;SDS011;34730;50.894;6.052;2022-09-09T03:32:17;8.73;;;2.58;;
48919;SDS011;34730;50.894;6.052;2022-09-09T03:32:50;5.13;;;1.85;;
48919;SDS011;34730;50.894;6.052;2022-09-09T03:33:25;6.38;;;2.10;;
48919;SDS011;34730;50.894;6.052;2022-09-09T03:33:58;6.78;;;2.20;;
48919;SDS011;34730;50.894;6.052;2022-09-09T03:34:30;7.15;;;2.03;;
48919;SDS011;34730;50.894;6.052;2022-09-09T03:35:02;7.22;;;2.10;;
48919;SDS011;34730;50.894;6.052;2022-09-09T03:35:34;7.45;;;2.00;;
48919;SDS011;34730;50.894;6.052;2022-09-09T03:36:10;7.25;;;1.90;;
48919;SDS011;34730;50.894;6.052;2022-09-09T03:36:41;5.38;;;1.70;;
48919;SDS011;34730;50.894;6.052;2022-09-09T03:37:12;8.75;;;2.13;;
48919;SDS011;34730;50.894;6.052;2022-09-09T03:37:43;6.65;;;2.05;;
48919;SDS011;34730;50.894;6.052;2022-09-09T03:38:17;6.60;;;2.00;;
48919;SDS011;34730;50.894;6.052;2022-09-09T03:38:48;8.32;;;2.10;;
48919;SDS011;34730;50.894;6.052;2022-09-09T03:39:21;5.75;;;2.17;;
48919;SDS011;34730;50.894;6.052;2022-09-09T03:39:52;8.45;;;2.55;;
48919;SDS011;34730;50.894;6.052;2022-09-09T03:40:25;9.15;;;2.50;;
48919;SDS011;34730;50.894;6.052;2022-09-09T03:41:02;7.20;;;2.30;;
48919;SDS011;34730;50.894;6.052;2022-09-09T03:41:33;9.27;;;2.30;;
48919;SDS011;34730;50.894;6.052;2022-09-09T03:42:06;9.23;;;2.92;;
48919;SDS011;34730;50.894;6.052;2022-09-09T03:42:39;7.05;;;2.17;;
48919;SDS011;34730;50.894;6.052;2022-09-09T03:43:10;7.05;;;2.30;;
48919;SDS011;34730;50.894;6.052;2022-09-09T03:43:40;5.85;;;2.10;;
48919;SDS011;34730;50.894;6.052;2022-09-09T03:44:11;7.65;;;2.10;;
48919;SDS011;34730;50.894;6.052;2022-09-09T03:44:45;4.45;;;2.03;;
48919;SDS011;34730;50.894;6.052;2022-09-09T03:45:24;7.95;;;2.58;;
48919;SDS011;34730;50.894;6.052;2022-09-09T03:45:55;9.48;;;2.20;;
48919;SDS011;34730;50.894;6.052;2022-09-09T03:46:28;8.43;;;2.30;;
48919;SDS011;34730;50.894;6.052;2022-09-09T03:46:59;8.98;;;2.42;;
48919;SDS011;34730;50.894;6.052;2022-09-09T03:47:32;7.45;;;2.33;;
48919;SDS011;34730;50.894;6.052;2022-09-09T03:48:11;8.20;;;2.45;;
48919;SDS011;34730;50.894;6.052;2022-09-09T03:48:42;8.60;;;2.25;;
48919;SDS011;34730;50.894;6.052;2022-09-09T03:49:12;7.45;;;2.25;;
48919;SDS011;34730;50.894;6.052;2022-09-09T03:49:43;13.13;;;3.05;;
48919;SDS011;34730;50.894;6.052;2022-09-09T03:50:14;8.65;;;2.15;;
48919;SDS011;34730;50.894;6.052;2022-09-09T03:50:51;7.18;;;2.20;;
48919;SDS011;34730;50.894;6.052;2022-09-09T03:51:22;7.05;;;2.15;;
48919;SDS011;34730;50.894;6.052;2022-09-09T03:51:56;7.55;;;2.00;;
48919;SDS011;34730;50.894;6.052;2022-09-09T03:52:27;10.70;;;2.47;;
48919;SDS011;34730;50.894;6.052;2022-09-09T03:52:59;6.82;;;1.88;;
48919;SDS011;34730;50.894;6.052;2022-09-09T03:53:30;6.53;;;2.00;;
48919;SDS011;34730;50.894;6.052;2022-09-09T03:54:02;5.22;;;1.85;;
48919;SDS011;34730;50.894;6.052;2022-09-09T03:54:35;5.75;;;1.98;;
48919;SDS011;34730;50.894;6.052;2022-09-09T03:55:06;8.10;;;1.88;;
48919;SDS011;34730;50.894;6.052;2022-09-09T03:55:37;10.00;;;2.10;;
48919;SDS011;34730;50.894;6.052;2022-09-09T03:56:07;8.35;;;2.05;;
48919;SDS011;34730;50.894;6.052;2022-09-09T03:56:39;9.57;;;2.03;;
48919;SDS011;34730;50.894;6.052;2022-09-09T03:57:13;9.55;;;1.90;;
48919;SDS011;34730;50.894;6.052;2022-09-09T03:57:46;6.80;;;1.90;;
48919;SDS011;34730;50.894;6.052;2022-09-09T03:58:17;6.43;;;1.75;;
48919;SDS011;34730;50.894;6.052;2022-09-09T03:58:49;8.60;;;2.10;;
48919;SDS011;34730;50.894;6.052;2022-09-09T03:59:22;6.65;;;1.80;;
48919;SDS011;34730;50.894;6.052;2022-09-09T03:59:53;5.15;;;2.05;;
48919;SDS011;34730;50.894;6.052;2022-09-09T04:00:27;6.78;;;2.00;;
48919;SDS011;34730;50.894;6.052;2022-09-09T04:00:59;8.60;;;2.10;;
48919;SDS011;34730;50.894;6.052;2022-09-09T04:01:34;5.30;;;1.80;;
48919;SDS011;34730;50.894;6.052;2022-09-09T04:02:05;6.03;;;2.10;;
48919;SDS011;34730;50.894;6.052;2022-09-09T04:02:35;9.15;;;1.98;;
48919;SDS011;34730;50.894;6.052;2022-09-09T04:03:09;7.82;;;2.30;;
48919;SDS011;34730;50.894;6.052;2022-09-09T04:03:40;7.50;;;2.22;;
48919;SDS011;34730;50.894;6.052;2022-09-09T04:04:12;5.53;;;1.83;;
48919;SDS011;34730;50.894;6.052;2022-09-09T04:04:43;6.80;;;2.17;;
48919;SDS011;34730;50.894;6.052;2022-09-09T04:05:14;7.07;;;2.05;;
48919;SDS011;34730;50.894;6.052;2022-09-09T04:05:48;7.07;;;2.00;;
48919;SDS011;34730;50.894;6.052;2022-09-09T04:06:22;7.55;;;2.00;;
48919;SDS011;34730;50.894;6.052;2022-09-09T04:06:53;8.75;;;2.38;;
48919;SDS011;34730;50.894;6.052;2022-09-09T04:07:27;5.32;;;1.88;;
48919;SDS011;34730;50.894;6.052;2022-09-09T04:07:59;9.65;;;2.33;;
48919;SDS011;34730;50.894;6.052;2022-09-09T04:08:30;5.60;;;1.90;;
48919;SDS011;34730;50.894;6.052;2022-09-09T04:09:04;7.00;;;2.30;;
48919;SDS011;34730;50.894;6.052;2022-09-09T04:09:36;8.20;;;2.03;;
48919;SDS011;34730;50.894;6.052;2022-09-09T04:10:07;8.85;;;2.00;;
48919;SDS011;34730;50.894;6.052;2022-09-09T04:10:39;5.88;;;1.98;;
48919;SDS011;34730;50.894;6.052;2022-09-09T04:11:10;7.93;;;2.10;;
48919;SDS011;34730;50.894;6.052;2022-09-09T04:11:42;6.85;;;2.20;;
48919;SDS011;34730;50.894;6.052;2022-09-09T04:12:13;10.18;;;2.30;;
48919;SDS011;34730;50.894;6.052;2022-09-09T04:12:44;6.45;;;2.30;;
48919;SDS011;34730;50.894;6.052;2022-09-09T04:13:17;7.32;;;2.15;;
48919;SDS011;34730;50.894;6.052;2022-09-09T04:13:50;8.10;;;2.10;;
48919;SDS011;34730;50.894;6.052;2022-09-09T04:14:22;6.63;;;2.20;;
48919;SDS011;34730;50.894;6.052;2022-09-09T04:14:55;8.35;;;2.55;;
48919;SDS011;34730;50.894;6.052;2022-09-09T04:15:26;6.38;;;1.88;;
48919;SDS011;34730;50.894;6.052;2022-09-09T04:15:58;7.28;;;2.05;;
48919;SDS011;34730;50.894;6.052;2022-09-09T04:16:33;7.45;;;2.20;;
48919;SDS011;34730;50.894;6.052;2022-09-09T04:17:07;5.28;;;2.08;;
48919;SDS011;34730;50.894;6.052;2022-09-09T04:17:38;8.02;;;2.22;;
48919;SDS011;34730;50.894;6.052;2022-09-09T04:18:09;5.55;;;2.10;;
48919;SDS011;34730;50.894;6.052;2022-09-09T04:18:41;8.32;;;2.38;;
48919;SDS011;34730;50.894;6.052;2022-09-09T04:19:13;5.00;;;2.15;;
48919;SDS011;34730;50.894;6.052;2022-09-09T04:19:46;8.02;;;2.00;;
48919;SDS011;34730;50.894;6.052;2022-09-09T04:20:17;9.60;;;2.67;;
48919;SDS011;34730;50.894;6.052;2022-09-09T04:20:50;5.30;;;2.00;;
48919;SDS011;34730;50.894;6.052;2022-09-09T04:21:25;9.32;;;2.60;;
48919;SDS011;34730;50.894;6.052;2022-09-09T04:21:57;6.95;;;2.13;;
48919;SDS011;34730;50.894;6.052;2022-09-09T04:22:27;6.90;;;2.03;;
48919;SDS011;34730;50.894;6.052;2022-09-09T04:22:58;6.82;;;2.05;;
48919;SDS011;34730;50.894;6.052;2022-09-09T04:23:33;7.95;;;2.30;;
48919;SDS011;34730;50.894;6.052;2022-09-09T04:24:05;7.13;;;1.98;;